EZY37HW EGKK-LXGB
Flight info
| Callsign | EZY37HW |
|---|---|
| Flight time | N/A |
| Altitude | 37000 |
| Route | NOVMA1X NOVMA L620 SAM M195 MARUK N621 LELNA DCT NOVAN DCT DELOG DCT CRISA DCT VULPE DCT MAR N864 PIMOS DCT |
| Aircraft | A319/M-SDE3FGHIRWY/LB1 |
Departure
| Time | 2026-04-16 15:16 |
|---|---|
| Airport | London Gatwick Airport (EGKK) |
Arrival
| Time | N/A |
|---|---|
| Airport | Gibraltar Airport (LXGB) |
| Time | Latitude | Longitude | Altitude | Speed | Heading |
|---|---|---|---|---|---|
| 2026-04-16 14:50 | 51.15464 | -0.17523 | 205 ft | 0 kts | 168° |
| 2026-04-16 15:06 | 51.15474 | -0.17527 | 204 ft | 4 kts | 167° |
| 2026-04-16 15:07 | 51.15500 | -0.17538 | 210 ft | 4 kts | 157° |
| 2026-04-16 15:07 | 51.15522 | -0.17560 | 204 ft | 4 kts | 116° |
| 2026-04-16 15:07 | 51.15526 | -0.17578 | 214 ft | 0 kts | 77° |
| 2026-04-16 15:11 | 51.15530 | -0.17546 | 204 ft | 7 kts | 75° |
| 2026-04-16 15:11 | 51.15539 | -0.17470 | 204 ft | 7 kts | 95° |
| 2026-04-16 15:11 | 51.15505 | -0.17421 | 204 ft | 7 kts | 150° |
| 2026-04-16 15:11 | 51.15451 | -0.17403 | 215 ft | 8 kts | 173° |
| 2026-04-16 15:12 | 51.15392 | -0.17381 | 204 ft | 9 kts | 166° |
| 2026-04-16 15:12 | 51.15319 | -0.17354 | 209 ft | 13 kts | 167° |
| 2026-04-16 15:12 | 51.15235 | -0.17304 | 208 ft | 13 kts | 144° |
| 2026-04-16 15:12 | 51.15179 | -0.17235 | 207 ft | 0 kts | 144° |
| 2026-04-16 15:14 | 51.15172 | -0.17228 | 217 ft | 4 kts | 144° |
| 2026-04-16 15:15 | 51.15130 | -0.17171 | 212 ft | 9 kts | 139° |
| 2026-04-16 15:15 | 51.15077 | -0.17167 | 204 ft | 8 kts | 216° |
| 2026-04-16 15:15 | 51.15055 | -0.17251 | 215 ft | 8 kts | 256° |
| 2026-04-16 15:15 | 51.15043 | -0.17343 | 215 ft | 10 kts | 257° |
| 2026-04-16 15:16 | 51.14984 | -0.17755 | 213 ft | 75 kts | 257° |
| 2026-04-16 15:16 | 51.14822 | -0.18897 | 209 ft | 134 kts | 256° |
| 2026-04-16 15:16 | 51.14602 | -0.20528 | 531 ft | 155 kts | 254° |
| 2026-04-16 15:16 | 51.14426 | -0.22259 | 1191 ft | 161 kts | 257° |
| 2026-04-16 15:17 | 51.14237 | -0.24056 | 1828 ft | 170 kts | 256° |
| 2026-04-16 15:17 | 51.13956 | -0.26011 | 2217 ft | 192 kts | 253° |
| 2026-04-16 15:17 | 51.13620 | -0.28191 | 2643 ft | 213 kts | 254° |
| 2026-04-16 15:17 | 51.13269 | -0.30523 | 3434 ft | 220 kts | 255° |
| 2026-04-16 15:18 | 51.12915 | -0.32943 | 4128 ft | 234 kts | 256° |